Time;durP1;ratioP1;P1;durP2;ratioP2;P2;SDS_P1;SDS_P2;PMS_P1;PMS_P2;Temp;Humidity;BMP_temperature;BMP_pressure;BME280_temperature;BME280_humidity;BME280_pressure;Samples;Min_cycle;Max_cycle;Signal;HPM_P1;HPM_P2
2021/06/29 00:01:06;;;;;;;6.53;3.60;;;17.60;99.90;;;;;;4972483;28;20150;-85
2021/06/29 00:03:33;;;;;;;4.45;3.15;;;17.90;99.90;;;;;;4973179;28;20405;-84
2021/06/29 00:05:58;;;;;;;5.65;3.30;;;17.90;99.90;;;;;;4972970;28;20023;-84
2021/06/29 00:08:25;;;;;;;5.13;3.42;;;17.90;99.90;;;;;;4972121;28;20030;-85
2021/06/29 00:10:51;;;;;;;5.57;3.28;;;17.80;99.90;;;;;;4973039;28;20464;-84
2021/06/29 00:13:18;;;;;;;6.63;3.67;;;17.60;99.90;;;;;;4971702;28;20034;-84
2021/06/29 00:15:44;;;;;;;6.03;3.75;;;17.70;99.90;;;;;;4973050;28;20497;-84
2021/06/29 00:18:10;;;;;;;5.50;2.95;;;17.50;99.90;;;;;;4972820;28;20050;-84
2021/06/29 00:20:36;;;;;;;6.13;3.15;;;17.40;99.90;;;;;;4960116;28;20082;-84
2021/06/29 00:23:02;;;;;;;6.50;3.15;;;17.20;99.90;;;;;;4973419;28;20033;-84
2021/06/29 00:25:28;;;;;;;7.10;3.08;;;17.10;99.90;;;;;;4972367;28;20133;-84
2021/06/29 00:27:53;;;;;;;5.72;3.50;;;16.90;99.90;;;;;;4973433;28;20027;-84
2021/06/29 00:30:19;;;;;;;6.95;3.70;;;17.00;99.90;;;;;;4957586;28;20035;-84
2021/06/29 00:32:45;;;;;;;5.45;3.67;;;16.90;99.90;;;;;;4977081;28;20158;-84
2021/06/29 00:35:11;;;;;;;6.82;3.78;;;16.90;99.90;;;;;;4976925;28;20501;-84
2021/06/29 00:37:37;;;;;;;7.32;4.00;;;17.10;99.90;;;;;;4976900;28;20043;-85
2021/06/29 00:40:05;;;;;;;5.10;3.38;;;17.20;99.90;;;;;;4976720;28;20335;-84
2021/06/29 00:42:30;;;;;;;5.15;3.35;;;17.00;99.90;;;;;;4976779;28;20049;-84
2021/06/29 00:44:56;;;;;;;5.05;2.95;;;17.00;99.90;;;;;;4976712;28;20489;-84
2021/06/29 00:47:22;;;;;;;5.28;3.45;;;17.00;99.90;;;;;;4976412;28;20019;-84
2021/06/29 00:49:48;;;;;;;4.25;3.00;;;17.50;99.90;;;;;;4976218;28;20038;-84
2021/06/29 00:52:15;;;;;;;5.25;3.13;;;17.50;99.90;;;;;;4976960;28;20050;-84
2021/06/29 00:54:42;;;;;;;5.78;3.00;;;17.50;99.90;;;;;;4976094;28;20437;-84
2021/06/29 00:57:11;;;;;;;4.18;2.90;;;17.60;99.90;;;;;;4976599;28;20034;-84
2021/06/29 00:59:38;;;;;;;4.82;2.83;;;17.60;99.90;;;;;;4976356;28;20117;-84
2021/06/29 01:02:04;;;;;;;6.13;2.60;;;17.60;99.90;;;;;;4976950;28;20041;-84
2021/06/29 01:04:31;;;;;;;4.20;2.80;;;17.50;99.90;;;;;;4976583;28;20031;-85
2021/06/29 01:06:57;;;;;;;6.05;2.60;;;17.40;99.90;;;;;;4976858;28;20468;-84
2021/06/29 01:09:24;;;;;;;5.57;2.50;;;18.00;99.90;;;;;;4975035;28;20027;-84
2021/06/29 01:11:49;;;;;;;3.90;2.50;;;17.40;99.90;;;;;;4977154;28;20041;-85
2021/06/29 01:14:17;;;;;;;3.83;2.38;;;17.40;99.90;;;;;;4976176;28;20027;-84
2021/06/29 01:16:44;;;;;;;3.85;2.45;;;17.30;99.90;;;;;;4976373;28;20473;-84
2021/06/29 01:19:18;;;;;;;3.90;2.25;;;17.30;99.90;;;;;;4973372;28;20077;-85
2021/06/29 01:21:46;;;;;;;3.90;2.38;;;17.40;99.90;;;;;;4974262;28;20110;-84
2021/06/29 01:24:19;;;;;;;4.93;2.47;;;17.30;99.90;;;;;;4976257;28;20023;-84
2021/06/29 01:27:03;;;;;;;3.45;2.20;;;17.40;99.90;;;;;;4958668;28;20022;-84
2021/06/29 01:29:42;;;;;;;4.63;2.00;;;17.40;99.90;;;;;;4975200;28;20018;-85
2021/06/29 01:32:13;;;;;;;3.50;1.98;;;17.40;99.90;;;;;;4976387;28;20047;-84
2021/06/29 01:34:38;;;;;;;4.18;2.25;;;17.30;99.90;;;;;;4975278;28;20027;-84
2021/06/29 01:37:04;;;;;;;3.10;1.80;;;17.60;99.90;;;;;;4975030;28;20049;-84
2021/06/29 01:39:30;;;;;;;2.90;1.70;;;17.30;99.90;;;;;;4975022;28;20034;-84
2021/06/29 01:41:55;;;;;;;3.88;1.55;;;17.30;99.90;;;;;;4976048;28;20035;-84
2021/06/29 01:44:27;;;;;;;2.88;1.52;;;17.20;99.90;;;;;;4976099;28;20026;-85
2021/06/29 01:46:55;;;;;;;3.03;1.70;;;17.20;99.90;;;;;;4959335;28;20023;-85
2021/06/29 01:49:28;;;;;;;3.67;1.98;;;17.20;99.90;;;;;;4975967;28;20104;-84
2021/06/29 01:51:54;;;;;;;4.40;2.03;;;17.00;99.90;;;;;;4977082;28;20101;-84
2021/06/29 01:54:21;;;;;;;4.32;1.70;;;17.00;99.90;;;;;;4975473;28;20029;-84
2021/06/29 01:56:51;;;;;;;4.88;2.28;;;17.10;99.90;;;;;;4976211;28;20037;-84
2021/06/29 01:59:20;;;;;;;3.85;2.30;;;16.90;99.90;;;;;;4975106;28;20023;-84
2021/06/29 02:01:46;;;;;;;4.80;2.30;;;17.20;99.90;;;;;;4975452;28;20500;-84
2021/06/29 02:04:12;;;;;;;4.07;2.17;;;16.90;99.90;;;;;;4975221;28;20027;-84
2021/06/29 02:06:39;;;;;;;4.70;2.15;;;16.80;99.90;;;;;;4942883;28;20031;-84
2021/06/29 02:09:09;;;;;;;3.80;2.10;;;16.90;99.90;;;;;;4938612;28;20023;-84
2021/06/29 02:11:37;;;;;;;4.25;2.25;;;16.70;99.90;;;;;;4955959;28;20036;-85
2021/06/29 02:14:03;;;;;;;3.95;2.50;;;16.70;99.90;;;;;;4958915;28;20029;-84
2021/06/29 02:16:29;;;;;;;4.18;2.63;;;16.70;99.90;;;;;;4974950;28;20070;-85
2021/06/29 02:18:54;;;;;;;3.55;2.25;;;16.80;99.90;;;;;;4974436;28;20038;-84
2021/06/29 02:21:20;;;;;;;4.57;2.72;;;16.60;99.90;;;;;;4969293;28;20062;-85
2021/06/29 02:23:45;;;;;;;4.30;2.30;;;16.80;99.90;;;;;;4975181;28;20038;-85
2021/06/29 02:26:11;;;;;;;4.47;2.70;;;16.80;99.90;;;;;;4975105;28;20035;-85
2021/06/29 02:28:37;;;;;;;3.42;1.90;;;16.80;99.90;;;;;;4974481;28;20053;-86
2021/06/29 02:31:02;;;;;;;3.67;1.95;;;16.90;99.90;;;;;;4957934;28;20030;-85
2021/06/29 02:33:28;;;;;;;5.45;1.65;;;16.90;99.90;;;;;;4975859;28;20031;-85
2021/06/29 02:35:53;;;;;;;5.20;1.80;;;16.90;99.90;;;;;;4975876;28;20404;-86
2021/06/29 02:38:19;;;;;;;5.25;2.22;;;16.90;99.90;;;;;;4975193;28;20390;-85
2021/06/29 02:40:45;;;;;;;3.53;2.00;;;16.90;99.90;;;;;;4975140;28;20030;-84
2021/06/29 02:43:15;;;;;;;3.20;1.88;;;17.00;99.90;;;;;;4975130;28;20499;-85
2021/06/29 02:45:41;;;;;;;2.97;1.80;;;17.10;99.90;;;;;;4974349;28;20109;-85
2021/06/29 02:48:07;;;;;;;2.90;1.85;;;17.10;99.90;;;;;;4974349;28;20058;-85
2021/06/29 02:50:33;;;;;;;3.65;1.70;;;17.10;99.90;;;;;;4957727;28;20071;-85
2021/06/29 02:52:59;;;;;;;3.15;1.83;;;17.10;99.90;;;;;;4975639;28;20022;-85
2021/06/29 02:55:24;;;;;;;2.80;1.77;;;17.20;99.90;;;;;;4957168;28;20027;-85
2021/06/29 02:57:50;;;;;;;3.60;1.85;;;16.90;99.90;;;;;;4974869;28;20488;-84
2021/06/29 03:00:18;;;;;;;5.65;2.17;;;17.00;99.90;;;;;;4990819;23;20041;-81
2021/06/29 03:02:44;;;;;;;4.10;2.13;;;16.90;99.90;;;;;;4973119;28;20126;-84
2021/06/29 03:05:10;;;;;;;4.32;1.88;;;17.00;99.90;;;;;;4976246;28;20030;-83
2021/06/29 03:07:36;;;;;;;3.75;2.00;;;17.00;99.90;;;;;;4977945;28;20058;-83
2021/06/29 03:10:04;;;;;;;3.85;1.90;;;17.10;99.90;;;;;;4976876;28;20015;-83
2021/06/29 03:12:30;;;;;;;3.03;1.73;;;17.10;99.90;;;;;;4958140;29;20031;-83
2021/06/29 03:15:00;;;;;;;4.22;1.67;;;17.20;99.90;;;;;;4953462;28;20054;-83
2021/06/29 03:17:26;;;;;;;3.40;2.10;;;17.30;99.90;;;;;;4958402;29;20039;-83
2021/06/29 03:19:52;;;;;;;2.92;1.58;;;17.20;99.90;;;;;;4957546;29;20059;-83
2021/06/29 03:22:18;;;;;;;3.58;1.77;;;17.30;99.90;;;;;;4940017;29;20034;-83
2021/06/29 03:24:44;;;;;;;3.15;2.00;;;17.30;99.90;;;;;;4958757;28;20035;-83
2021/06/29 03:27:09;;;;;;;4.00;2.05;;;17.40;99.90;;;;;;4958531;29;20509;-83
2021/06/29 03:29:36;;;;;;;3.42;1.88;;;17.40;99.90;;;;;;4958117;29;20024;-82
2021/06/29 03:32:03;;;;;;;2.58;1.60;;;17.80;99.90;;;;;;4958871;28;20023;-83
2021/06/29 03:34:28;;;;;;;3.22;1.92;;;17.40;99.90;;;;;;4957788;29;20030;-82
2021/06/29 03:36:54;;;;;;;2.35;1.45;;;17.30;99.90;;;;;;4941334;29;20023;-83
2021/06/29 03:39:20;;;;;;;4.75;2.50;;;17.30;99.90;;;;;;4958121;29;20023;-83
2021/06/29 03:41:46;;;;;;;2.97;1.77;;;17.30;99.90;;;;;;4958159;28;20031;-83
2021/06/29 03:44:11;;;;;;;4.68;2.17;;;17.30;99.90;;;;;;4958209;29;20086;-82
2021/06/29 03:46:37;;;;;;;2.70;1.70;;;17.40;99.90;;;;;;4956951;29;20035;-84
2021/06/29 03:49:03;;;;;;;2.85;1.70;;;17.60;99.90;;;;;;4957837;28;20102;-83
2021/06/29 03:51:29;;;;;;;4.25;1.67;;;17.40;99.90;;;;;;4956755;29;20065;-83
2021/06/29 03:53:55;;;;;;;3.33;1.67;;;17.10;99.90;;;;;;4958632;29;20032;-83
2021/06/29 03:56:23;;;;;;;2.60;1.60;;;17.30;99.90;;;;;;4957592;28;20154;-84
2021/06/29 03:58:53;;;;;;;3.85;2.10;;;17.30;99.90;;;;;;4958656;29;20031;-84
2021/06/29 04:01:20;;;;;;;5.18;2.33;;;17.40;99.90;;;;;;4967928;28;20026;-84
2021/06/29 04:03:45;;;;;;;4.18;2.08;;;17.40;99.90;;;;;;4959823;28;20026;-83
2021/06/29 04:06:11;;;;;;;3.42;2.08;;;17.30;99.90;;;;;;4961072;28;20034;-84
2021/06/29 04:08:37;;;;;;;3.80;1.90;;;17.30;99.90;;;;;;4980702;28;20022;-84
2021/06/29 04:11:03;;;;;;;6.95;1.88;;;17.10;99.90;;;;;;4963006;28;20096;-83
2021/06/29 04:13:28;;;;;;;4.07;1.83;;;17.30;99.90;;;;;;4980337;28;20058;-84
2021/06/29 04:15:54;;;;;;;4.43;1.85;;;17.20;99.90;;;;;;4961073;28;20050;-84
2021/06/29 04:18:20;;;;;;;3.50;1.75;;;17.30;99.90;;;;;;4980652;28;20030;-84
2021/06/29 04:20:45;;;;;;;2.97;1.80;;;17.30;99.90;;;;;;4962340;28;20053;-84
2021/06/29 04:23:11;;;;;;;3.30;1.83;;;17.40;99.90;;;;;;4980802;28;20058;-84
2021/06/29 04:25:37;;;;;;;3.45;1.92;;;17.30;99.90;;;;;;4979755;28;20170;-83
2021/06/29 04:28:03;;;;;;;2.58;1.73;;;17.30;99.90;;;;;;4962131;28;20023;-83
2021/06/29 04:30:28;;;;;;;3.92;2.05;;;17.20;99.90;;;;;;4975095;28;20023;-83
2021/06/29 04:32:54;;;;;;;5.75;1.88;;;17.00;99.90;;;;;;4959038;28;20045;-83
2021/06/29 04:35:20;;;;;;;4.18;1.65;;;16.80;99.90;;;;;;4977360;28;20110;-84
2021/06/29 04:37:46;;;;;;;3.58;2.00;;;16.90;99.90;;;;;;4959386;28;20034;-84
2021/06/29 04:40:12;;;;;;;3.15;1.77;;;16.90;99.90;;;;;;4976557;28;20366;-82
2021/06/29 04:42:38;;;;;;;3.25;1.75;;;16.80;99.90;;;;;;4977352;28;20420;-83
2021/06/29 04:45:05;;;;;;;3.95;2.20;;;17.10;99.90;;;;;;4960894;28;20061;-83
2021/06/29 04:47:36;;;;;;;6.90;2.08;;;16.80;99.90;;;;;;4961874;28;20046;-85
2021/06/29 04:50:05;;;;;;;3.40;1.90;;;16.60;99.90;;;;;;4961901;28;20086;-85
2021/06/29 04:52:30;;;;;;;3.45;1.98;;;16.80;99.90;;;;;;4977858;28;20397;-85
2021/06/29 04:54:56;;;;;;;3.85;2.15;;;16.80;99.90;;;;;;4978062;28;20092;-84
2021/06/29 04:57:21;;;;;;;3.60;2.20;;;16.90;99.90;;;;;;4961411;28;20023;-85
2021/06/29 04:59:47;;;;;;;4.75;2.45;;;17.10;99.90;;;;;;4977513;28;20045;-84
2021/06/29 05:02:13;;;;;;;4.05;2.67;;;16.90;99.90;;;;;;4980658;28;20031;-84
2021/06/29 05:04:39;;;;;;;3.95;2.20;;;17.40;99.90;;;;;;4979701;28;20033;-85
2021/06/29 05:07:04;;;;;;;3.40;2.15;;;17.00;99.90;;;;;;4980494;28;20022;-84
2021/06/29 05:09:30;;;;;;;4.15;2.40;;;17.00;99.90;;;;;;4978844;28;20015;-84
2021/06/29 05:11:56;;;;;;;4.65;2.38;;;16.80;99.90;;;;;;4966821;28;20035;-85
2021/06/29 05:14:21;;;;;;;4.00;2.33;;;17.10;99.90;;;;;;4979058;28;20058;-84
2021/06/29 05:16:47;;;;;;;3.50;2.10;;;17.10;99.90;;;;;;4963326;28;20027;-86
2021/06/29 05:19:13;;;;;;;2.58;1.48;;;17.40;99.90;;;;;;4965996;28;20030;-84
2021/06/29 05:21:38;;;;;;;3.08;1.70;;;17.10;99.90;;;;;;4983448;28;20109;-86
2021/06/29 05:24:04;;;;;;;3.22;1.60;;;17.10;99.90;;;;;;4964973;28;20046;-86
2021/06/29 05:26:30;;;;;;;2.75;1.60;;;17.20;99.90;;;;;;4964551;28;20023;-83
2021/06/29 05:28:56;;;;;;;3.30;2.00;;;17.10;99.90;;;;;;4977103;28;20031;-83
2021/06/29 05:31:21;;;;;;;3.30;1.70;;;17.30;99.90;;;;;;4960000;28;20030;-85
2021/06/29 05:33:47;;;;;;;3.83;1.88;;;17.20;99.90;;;;;;4961175;28;20027;-84
2021/06/29 05:36:13;;;;;;;3.50;1.92;;;17.30;99.90;;;;;;4961607;28;20392;-86
2021/06/29 05:38:38;;;;;;;4.13;2.20;;;17.30;99.90;;;;;;4960235;28;20034;-83
2021/06/29 05:41:04;;;;;;;3.55;2.05;;;17.40;99.90;;;;;;4985289;28;20042;-85
2021/06/29 05:43:29;;;;;;;3.50;2.08;;;17.80;99.90;;;;;;4978221;28;20038;-84
2021/06/29 05:45:55;;;;;;;3.03;1.92;;;17.50;99.90;;;;;;4978451;28;20540;-84
2021/06/29 05:48:21;;;;;;;3.78;2.20;;;17.50;99.90;;;;;;4975950;28;20030;-84
2021/06/29 05:50:46;;;;;;;4.05;2.10;;;17.50;99.90;;;;;;4979433;28;20031;-84
2021/06/29 05:53:14;;;;;;;4.55;2.45;;;17.50;99.90;;;;;;4977641;28;20385;-85
2021/06/29 05:55:39;;;;;;;3.33;1.92;;;17.40;99.90;;;;;;4960124;28;20031;-85
2021/06/29 05:58:05;;;;;;;5.78;2.17;;;17.10;99.90;;;;;;4981253;28;20493;-81
2021/06/29 06:00:31;;;;;;;3.50;2.28;;;17.30;99.90;;;;;;4975968;28;20038;-84
2021/06/29 06:02:56;;;;;;;3.72;2.38;;;17.40;99.90;;;;;;4957212;28;20681;-83
2021/06/29 06:05:30;;;;;;;4.07;2.22;;;17.40;99.90;;;;;;4971703;28;20031;-82
2021/06/29 06:07:57;;;;;;;3.88;1.98;;;17.50;99.90;;;;;;4957323;28;20034;-82
2021/06/29 06:10:22;;;;;;;4.20;2.00;;;17.60;99.90;;;;;;4974319;28;20023;-83
2021/06/29 06:12:48;;;;;;;3.35;2.05;;;17.60;99.90;;;;;;4974821;28;20159;-82
2021/06/29 06:15:14;;;;;;;4.28;2.45;;;17.80;99.90;;;;;;4945920;28;20046;-82
2021/06/29 06:17:41;;;;;;;3.33;2.10;;;17.90;99.90;;;;;;4957345;28;20418;-82
2021/06/29 06:20:08;;;;;;;3.65;1.83;;;18.00;99.90;;;;;;4952904;28;20117;-83
2021/06/29 06:22:34;;;;;;;3.42;1.70;;;18.10;99.90;;;;;;4960635;28;20034;-85
2021/06/29 06:25:00;;;;;;;2.75;1.63;;;18.30;99.90;;;;;;4979794;28;20029;-85
2021/06/29 06:27:26;;;;;;;3.42;1.40;;;18.30;99.90;;;;;;4954373;28;20105;-82
2021/06/29 06:29:52;;;;;;;2.85;1.58;;;18.30;99.90;;;;;;4946319;28;20055;-85
2021/06/29 06:32:17;;;;;;;2.17;1.15;;;19.10;99.90;;;;;;4998475;28;20073;-84
2021/06/29 06:34:43;;;;;;;2.15;1.30;;;18.60;99.90;;;;;;4981611;28;20374;-85
2021/06/29 06:37:09;;;;;;;2.25;1.25;;;18.80;99.90;;;;;;4974473;28;20035;-85
2021/06/29 06:39:35;;;;;;;2.97;1.40;;;18.90;99.90;;;;;;4942217;29;20024;-85
2021/06/29 06:42:00;;;;;;;2.42;1.30;;;19.00;99.90;;;;;;4960946;29;20034;-84
2021/06/29 06:44:26;;;;;;;2.22;1.20;;;19.10;99.90;;;;;;4940746;29;20462;-84
2021/06/29 06:46:51;;;;;;;3.33;1.13;;;19.30;99.90;;;;;;4960571;29;20023;-85
2021/06/29 06:49:17;;;;;;;2.72;1.35;;;19.30;99.90;;;;;;4960770;29;20027;-85
2021/06/29 06:51:43;;;;;;;2.92;1.30;;;19.50;99.90;;;;;;4943463;29;20055;-85
2021/06/29 06:54:08;;;;;;;4.50;1.50;;;19.70;99.90;;;;;;4960793;28;20135;-83
2021/06/29 06:56:34;;;;;;;2.78;1.27;;;19.70;99.90;;;;;;4947174;28;20026;-85
2021/06/29 06:58:59;;;;;;;2.95;1.45;;;19.80;99.90;;;;;;4961861;28;20141;-85
2021/06/29 07:01:25;;;;;;;2.20;1.27;;;19.90;99.90;;;;;;4965505;28;20039;-85
2021/06/29 07:03:50;;;;;;;2.90;0.93;;;20.10;99.90;;;;;;4960569;29;20035;-84
2021/06/29 07:06:16;;;;;;;2.10;1.13;;;20.10;99.90;;;;;;4961743;29;20027;-85
2021/06/29 07:08:43;;;;;;;3.58;1.20;;;20.40;99.90;;;;;;4962544;28;20034;-85
2021/06/29 07:11:09;;;;;;;2.70;0.90;;;20.10;99.90;;;;;;4965126;29;20031;-84
2021/06/29 07:13:36;;;;;;;5.05;1.00;;;20.20;99.90;;;;;;4965275;29;20110;-83
2021/06/29 07:16:03;;;;;;;2.88;0.98;;;20.20;99.90;;;;;;4965428;29;20053;-85
2021/06/29 07:18:29;;;;;;;1.33;0.68;;;20.00;99.90;;;;;;4964167;28;20125;-83
2021/06/29 07:20:54;;;;;;;2.20;0.80;;;20.00;99.90;;;;;;4947405;29;20580;-84
2021/06/29 07:23:20;;;;;;;2.22;0.68;;;20.50;99.90;;;;;;4947269;29;20057;-85
2021/06/29 07:25:46;;;;;;;1.50;0.70;;;20.30;99.90;;;;;;4963979;28;20057;-85
2021/06/29 07:28:13;;;;;;;1.65;0.57;;;21.10;99.90;;;;;;4947570;29;20473;-85
2021/06/29 07:30:40;;;;;;;1.17;0.70;;;20.90;99.90;;;;;;4980509;28;20023;-85
2021/06/29 07:33:07;;;;;;;1.30;0.80;;;20.50;99.90;;;;;;4985062;28;20030;-85
2021/06/29 07:35:32;;;;;;;1.75;0.73;;;20.50;99.90;;;;;;4976520;28;20046;-85
2021/06/29 07:38:01;;;;;;;2.05;0.93;;;21.40;99.90;;;;;;4967518;28;20387;-85
2021/06/29 07:40:29;;;;;;;0.95;0.50;;;20.00;99.90;;;;;;4966230;28;20033;-86
2021/06/29 07:42:56;;;;;;;2.42;0.60;;;20.60;99.90;;;;;;4974273;28;20690;-84
2021/06/29 07:45:22;;;;;;;2.38;0.70;;;21.10;99.90;;;;;;4962221;29;20055;-85
2021/06/29 07:47:48;;;;;;;1.13;0.50;;;20.70;99.90;;;;;;4962795;29;20051;-85
2021/06/29 07:50:14;;;;;;;3.28;0.75;;;21.40;99.90;;;;;;4980942;28;20042;-85
2021/06/29 07:52:40;;;;;;;3.85;0.60;;;21.00;99.90;;;;;;4981802;28;20027;-85
2021/06/29 07:55:07;;;;;;;1.52;0.50;;;21.40;99.90;;;;;;4964573;29;20093;-84
2021/06/29 07:57:33;;;;;;;1.00;0.40;;;21.50;99.90;;;;;;4964125;29;20150;-85
2021/06/29 07:59:59;;;;;;;0.57;0.38;;;21.40;99.90;;;;;;4931188;29;20027;-84
2021/06/29 08:02:24;;;;;;;1.30;0.50;;;21.50;99.90;;;;;;4946717;29;20039;-84
2021/06/29 08:04:50;;;;;;;1.95;0.50;;;21.60;99.90;;;;;;4963711;29;20019;-84
2021/06/29 08:07:16;;;;;;;1.55;0.52;;;21.70;99.90;;;;;;4982033;28;20033;-84
2021/06/29 08:09:42;;;;;;;1.95;0.70;;;22.00;99.90;;;;;;4977668;28;20077;-85
2021/06/29 08:12:08;;;;;;;1.58;0.50;;;22.50;99.90;;;;;;4963789;29;20050;-84
2021/06/29 08:14:36;;;;;;;2.72;0.73;;;22.10;99.90;;;;;;4963132;29;20359;-84
2021/06/29 08:17:03;;;;;;;1.35;0.50;;;22.00;99.90;;;;;;4947172;29;20027;-84
2021/06/29 08:19:29;;;;;;;1.23;0.40;;;22.30;99.90;;;;;;4963928;28;20047;-84
2021/06/29 08:21:55;;;;;;;1.33;0.40;;;22.10;99.90;;;;;;4964210;29;20026;-84
2021/06/29 08:24:21;;;;;;;1.25;0.40;;;22.20;99.90;;;;;;4964198;29;20032;-84
2021/06/29 08:26:46;;;;;;;1.13;0.50;;;22.30;99.90;;;;;;4965600;29;20035;-84
2021/06/29 08:29:12;;;;;;;1.27;0.60;;;22.50;99.90;;;;;;4966664;28;20043;-84
2021/06/29 08:31:38;;;;;;;1.52;0.60;;;22.10;99.90;;;;;;4997809;28;20030;-83
2021/06/29 08:34:04;;;;;;;2.20;0.70;;;22.20;99.90;;;;;;5007029;28;20030;-84
2021/06/29 08:36:30;;;;;;;1.80;0.77;;;22.10;99.90;;;;;;5006722;28;20022;-84
2021/06/29 08:38:57;;;;;;;1.20;0.57;;;22.40;99.90;;;;;;4978598;28;20087;-84
2021/06/29 08:41:27;;;;;;;1.80;0.73;;;22.20;99.90;;;;;;4985230;28;20027;-83
2021/06/29 08:43:53;;;;;;;0.93;0.50;;;22.30;99.90;;;;;;4971616;28;20039;-83
2021/06/29 08:46:19;;;;;;;3.97;0.70;;;22.40;99.90;;;;;;4968343;29;20024;-84
2021/06/29 08:48:45;;;;;;;2.13;0.70;;;22.80;99.90;;;;;;4967414;29;20043;-84
2021/06/29 08:51:11;;;;;;;1.23;0.60;;;23.20;99.90;;;;;;4953501;28;20580;-84
2021/06/29 08:53:36;;;;;;;1.52;0.60;;;23.40;99.90;;;;;;4954078;29;20099;-84
2021/06/29 08:56:03;;;;;;;2.13;0.60;;;23.50;99.90;;;;;;4971172;29;20031;-83
2021/06/29 08:58:31;;;;;;;1.77;0.47;;;23.70;99.90;;;;;;4971323;29;20047;-84
2021/06/29 09:00:57;;;;;;;0.90;0.50;;;24.00;99.90;;;;;;4970525;28;20512;-84
2021/06/29 09:03:23;;;;;;;2.72;0.70;;;24.00;99.90;;;;;;4989707;23;20082;-88
2021/06/29 09:05:51;;;;;;;1.40;0.50;;;24.10;99.90;;;;;;4969569;28;20046;-88
2021/06/29 09:08:22;;;;;;;1.02;0.50;;;24.10;99.90;;;;;;4970195;28;20528;-88
2021/06/29 09:11:19;;;;;;;1.65;0.60;;;23.80;99.90;;;;;;4976622;28;20026;-87
2021/06/29 09:14:09;;;;;;;1.83;0.65;;;23.40;99.90;;;;;;4955730;28;20355;-88
2021/06/29 09:16:35;;;;;;;1.85;0.70;;;23.30;99.90;;;;;;4938437;29;20023;-87
2021/06/29 09:19:01;;;;;;;1.73;0.45;;;23.60;99.90;;;;;;4937957;29;20029;-87
2021/06/29 09:21:26;;;;;;;0.75;0.40;;;24.10;99.90;;;;;;4948437;28;20031;-87
2021/06/29 09:23:52;;;;;;;3.20;0.50;;;23.80;99.90;;;;;;4939014;28;20031;-87
2021/06/29 09:26:23;;;;;;;0.95;0.50;;;23.90;99.90;;;;;;4940585;29;20540;-87
2021/06/29 09:28:59;;;;;;;2.03;0.60;;;23.60;99.90;;;;;;4956292;29;20464;-87
2021/06/29 09:31:31;;;;;;;1.77;0.50;;;23.60;99.90;;;;;;4956065;28;20371;-87
2021/06/29 09:34:01;;;;;;;0.95;0.40;;;23.60;99.90;;;;;;4966553;28;20078;-87
2021/06/29 09:36:32;;;;;;;1.15;0.52;;;23.80;99.90;;;;;;4956553;28;20121;-87
2021/06/29 09:39:12;;;;;;;0.65;0.40;;;24.20;99.90;;;;;;4953576;28;20042;-86
2021/06/29 09:41:39;;;;;;;2.55;0.70;;;24.30;99.90;;;;;;4957274;28;20026;-87
2021/06/29 09:44:13;;;;;;;0.63;0.30;;;24.40;99.90;;;;;;4968680;28;20519;-87
2021/06/29 09:46:41;;;;;;;1.20;0.60;;;24.30;99.90;;;;;;4954783;28;20074;-88
2021/06/29 09:49:15;;;;;;;1.05;0.43;;;24.70;99.90;;;;;;4955797;28;20019;-88
2021/06/29 09:51:46;;;;;;;2.25;0.85;;;25.10;99.90;;;;;;4956169;28;20019;-87
2021/06/29 09:54:14;;;;;;;1.70;0.50;;;25.10;99.90;;;;;;4971972;28;20035;-89
2021/06/29 09:56:44;;;;;;;0.95;0.50;;;25.30;99.90;;;;;;4956113;28;20023;-88
2021/06/29 09:59:24;;;;;;;0.98;0.43;;;25.50;99.90;;;;;;4955464;28;20492;-87
2021/06/29 10:02:04;;;;;;;2.25;0.52;;;25.60;99.90;;;;;;4949568;28;20470;-88
2021/06/29 10:04:31;;;;;;;1.25;0.60;;;25.70;99.90;;;;;;4955292;28;20041;-88
2021/06/29 10:07:18;;;;;;;2.45;0.50;;;25.70;99.90;;;;;;4955701;28;20593;-88
2021/06/29 10:09:44;;;;;;;1.08;0.45;;;25.30;99.90;;;;;;4954525;28;20058;-88
2021/06/29 10:12:10;;;;;;;0.77;0.40;;;25.20;99.90;;;;;;4974548;28;20023;-87
2021/06/29 10:14:37;;;;;;;0.90;0.50;;;25.20;99.90;;;;;;4938041;28;20131;-88
2021/06/29 10:17:04;;;;;;;1.10;0.60;;;25.30;99.90;;;;;;4937375;29;20058;-87
2021/06/29 10:22:03;;;;;;;0.98;0.55;;;25.40;99.90;;;;;;4953356;28;20030;-87
2021/06/29 10:24:32;;;;;;;1.40;0.40;;;25.80;99.90;;;;;;4951929;28;20089;-88
2021/06/29 10:27:00;;;;;;;1.77;0.50;;;26.00;99.90;;;;;;4951965;28;20027;-88
2021/06/29 10:29:28;;;;;;;0.70;0.50;;;26.30;99.90;;;;;;4965730;28;20026;-88
2021/06/29 10:31:56;;;;;;;2.58;0.60;;;26.30;99.90;;;;;;4961668;28;20714;-89
2021/06/29 10:34:24;;;;;;;1.48;0.57;;;26.40;99.70;;;;;;4949593;28;20058;-88
2021/06/29 10:36:53;;;;;;;1.10;0.40;;;26.70;99.80;;;;;;4950537;28;20121;-87
2021/06/29 10:39:22;;;;;;;0.80;0.40;;;26.70;99.90;;;;;;4947996;28;20027;-88
2021/06/29 10:41:52;;;;;;;2.05;0.50;;;26.70;99.90;;;;;;4952465;28;20556;-88
2021/06/29 10:44:21;;;;;;;1.13;0.50;;;27.00;99.90;;;;;;4956962;28;20090;-88
2021/06/29 10:46:53;;;;;;;1.00;0.55;;;27.00;99.00;;;;;;4953292;28;20018;-88
2021/06/29 10:49:31;;;;;;;1.80;0.40;;;27.10;98.60;;;;;;4950366;28;20354;-88
2021/06/29 10:51:59;;;;;;;1.05;0.50;;;27.10;99.90;;;;;;4951976;28;20027;-88
2021/06/29 10:54:48;;;;;;;0.90;0.50;;;27.10;99.90;;;;;;4971151;28;20485;-88
2021/06/29 10:57:24;;;;;;;1.17;0.60;;;26.70;99.20;;;;;;4952405;28;20041;-89
2021/06/29 10:59:52;;;;;;;2.15;0.50;;;26.70;99.30;;;;;;4951953;28;20030;-88
2021/06/29 11:03:02;;;;;;;1.00;0.45;;;27.20;98.70;;;;;;4969903;28;20496;-88
2021/06/29 11:05:44;;;;;;;0.90;0.50;;;26.80;99.30;;;;;;4943710;28;20122;-88
2021/06/29 11:08:20;;;;;;;2.08;0.65;;;27.00;98.70;;;;;;4950891;28;20034;-88
2021/06/29 11:10:49;;;;;;;1.50;0.60;;;27.20;99.80;;;;;;4952261;28;20027;-88
2021/06/29 11:13:16;;;;;;;1.02;0.50;;;27.50;98.50;;;;;;4952188;28;20042;-88
2021/06/29 11:15:43;;;;;;;1.00;0.43;;;27.40;97.80;;;;;;4949807;28;20038;-89
2021/06/29 11:18:10;;;;;;;0.77;0.40;;;27.40;98.20;;;;;;4950066;28;20038;-88
2021/06/29 11:20:46;;;;;;;1.73;0.60;;;27.50;96.60;;;;;;4952495;28;20058;-88
2021/06/29 11:23:25;;;;;;;1.60;0.70;;;27.70;98.00;;;;;;4961819;28;20034;-88
2021/06/29 11:25:53;;;;;;;0.90;0.50;;;28.00;96.10;;;;;;4952574;28;20054;-88
2021/06/29 11:28:28;;;;;;;1.15;0.63;;;28.20;96.60;;;;;;4971686;28;20396;-87
2021/06/29 11:31:23;;;;;;;1.98;0.77;;;28.40;96.60;;;;;;4953586;28;20122;-87
2021/06/29 11:33:50;;;;;;;1.35;0.50;;;28.50;96.30;;;;;;4933996;29;20135;-86
2021/06/29 11:36:29;;;;;;;2.10;0.60;;;28.20;94.80;;;;;;4936040;29;20031;-85
2021/06/29 11:39:21;;;;;;;2.75;0.70;;;28.10;94.30;;;;;;4936551;29;20020;-86
2021/06/29 11:41:56;;;;;;;1.67;0.50;;;27.40;94.00;;;;;;4954947;28;20148;-86
2021/06/29 11:44:21;;;;;;;2.15;0.40;;;27.20;94.70;;;;;;4940067;29;20082;-86
2021/06/29 11:47:09;;;;;;;1.02;0.50;;;27.50;95.70;;;;;;4954570;28;20035;-85
2021/06/29 11:49:43;;;;;;;1.13;0.52;;;27.70;94.90;;;;;;4971759;28;20023;-86
2021/06/29 11:52:18;;;;;;;1.42;0.50;;;27.70;93.20;;;;;;4955183;28;20477;-85
2021/06/29 11:54:45;;;;;;;2.67;0.77;;;27.70;93.50;;;;;;4953862;28;20532;-86
2021/06/29 11:57:30;;;;;;;1.17;0.43;;;27.90;92.30;;;;;;4971060;28;20519;-85
2021/06/29 12:00:20;;;;;;;1.02;0.47;;;27.50;94.10;;;;;;4969441;28;20092;-84
2021/06/29 12:02:47;;;;;;;1.85;0.60;;;27.70;94.30;;;;;;4947479;28;20054;-87
2021/06/29 12:05:21;;;;;;;1.00;0.55;;;28.10;93.10;;;;;;4949462;28;20042;-85
2021/06/29 12:07:48;;;;;;;1.58;0.50;;;28.60;90.90;;;;;;4956267;28;20099;-85
2021/06/29 12:10:21;;;;;;;1.38;0.60;;;29.00;92.20;;;;;;4973425;28;20042;-85
2021/06/29 12:13:01;;;;;;;1.25;0.40;;;29.80;92.80;;;;;;4961650;28;20027;-85
2021/06/29 12:15:36;;;;;;;0.93;0.47;;;29.80;92.80;;;;;;4949055;28;20408;-86
2021/06/29 12:18:02;;;;;;;1.23;0.40;;;30.10;90.70;;;;;;4970267;28;20042;-85
2021/06/29 12:20:37;;;;;;;0.93;0.50;;;30.40;88.40;;;;;;4957041;28;20023;-85
2021/06/29 12:23:05;;;;;;;0.70;0.50;;;30.70;88.10;;;;;;4939076;28;20050;-85
2021/06/29 12:25:39;;;;;;;0.47;0.30;;;31.00;86.40;;;;;;4953583;28;20030;-85
2021/06/29 12:28:09;;;;;;;0.75;0.28;;;31.00;80.10;;;;;;4955793;28;20113;-87
2021/06/29 12:30:40;;;;;;;0.97;0.30;;;30.60;80.10;;;;;;4956088;28;20038;-85
2021/06/29 12:33:14;;;;;;;1.33;0.30;;;30.00;83.20;;;;;;4954389;29;20274;-85
2021/06/29 12:35:40;;;;;;;0.57;0.30;;;30.40;83.80;;;;;;4962016;28;20481;-85
2021/06/29 12:38:08;;;;;;;0.73;0.32;;;30.20;84.10;;;;;;4962186;28;20046;-85
2021/06/29 12:40:35;;;;;;;1.95;0.30;;;30.30;85.30;;;;;;4961550;28;20046;-85
2021/06/29 12:43:30;;;;;;;1.08;0.47;;;30.20;83.70;;;;;;4978596;28;20027;-85
2021/06/29 12:46:11;;;;;;;0.98;0.52;;;29.50;83.90;;;;;;4958871;28;20035;-85
2021/06/29 12:48:37;;;;;;;;;;;28.80;87.30;;;;;;4974414;28;20030;-85
2021/06/29 12:51:05;;;;;;;1.50;0.50;;;28.70;88.00;;;;;;4973654;28;19914;-85
2021/06/29 12:53:32;;;;;;;1.13;0.60;;;28.20;90.30;;;;;;4954744;28;20026;-85
2021/06/29 12:56:16;;;;;;;1.63;0.60;;;28.00;90.00;;;;;;4953534;28;20481;-86